TAX09JF LPPI-LPMA
Flight info
| Callsign | TAX09JF |
|---|---|
| Flight time | N/A |
| Altitude | 37000 |
| Route | ASPEX DCT RODIL DCT VSM DCT ETROX DCT 3520N DCT IRKID/N0438F370 DCT TUXIV DCT IBBAN |
| Aircraft | A320/M-SDE3FGHIRWY/LB1 |
Departure
| Time | 2026-05-04 11:27 |
|---|---|
| Airport | Pico Airport (LPPI) |
Arrival
| Time | N/A |
|---|---|
| Airport | Cristiano Ronaldo International Airport (LPMA) |
| Time | Latitude | Longitude | Altitude | Speed | Heading |
|---|---|---|---|---|---|
| 2026-05-04 11:05 | 38.55271 | -28.44191 | 130 ft | 0 kts | 296° |
| 2026-05-04 11:24 | 38.55362 | -28.44858 | 125 ft | 23 kts | 263° |
| 2026-05-04 11:25 | 38.55331 | -28.45059 | 126 ft | 18 kts | 237° |
| 2026-05-04 11:25 | 38.55347 | -28.45118 | 126 ft | 2 kts | 2° |
| 2026-05-04 11:25 | 38.55360 | -28.45093 | 128 ft | 2 kts | 88° |
| 2026-05-04 11:26 | 38.55348 | -28.45005 | 124 ft | 0 kts | 81° |
| 2026-05-04 11:27 | 38.55908 | -28.39039 | 2633 ft | 157 kts | 80° |
| 2026-05-04 11:28 | 38.56069 | -28.37556 | 2897 ft | 181 kts | 81° |
| 2026-05-04 11:28 | 38.56253 | -28.35850 | 3207 ft | 207 kts | 82° |
| 2026-05-04 11:28 | 38.56456 | -28.33922 | 3649 ft | 231 kts | 82° |
| 2026-05-04 11:28 | 38.56673 | -28.31815 | 4322 ft | 245 kts | 82° |
| 2026-05-04 11:29 | 38.56896 | -28.29613 | 5289 ft | 248 kts | 82° |
| 2026-05-04 11:29 | 38.56932 | -28.27389 | 6194 ft | 254 kts | 96° |
| 2026-05-04 11:29 | 38.56484 | -28.25182 | 7065 ft | 261 kts | 111° |
| 2026-05-04 11:29 | 38.55665 | -28.23082 | 7856 ft | 267 kts | 116° |
| 2026-05-04 11:31 | 38.49059 | -28.06744 | 12287 ft | 334 kts | 116° |
| 2026-05-04 11:33 | 38.38410 | -27.90447 | 16931 ft | 362 kts | 141° |
| 2026-05-04 11:33 | 38.36404 | -27.88489 | 17553 ft | 365 kts | 141° |
| 2026-05-04 11:33 | 38.34381 | -27.86509 | 18168 ft | 369 kts | 141° |
| 2026-05-04 11:34 | 38.32337 | -27.84508 | 18771 ft | 372 kts | 141° |
| 2026-05-04 11:34 | 38.30275 | -27.82486 | 19306 ft | 377 kts | 141° |
| 2026-05-04 11:34 | 38.28189 | -27.80440 | 19835 ft | 381 kts | 141° |
| 2026-05-04 11:34 | 38.26071 | -27.78365 | 20359 ft | 386 kts | 142° |
| 2026-05-04 11:35 | 38.23928 | -27.76269 | 20896 ft | 390 kts | 142° |
| 2026-05-04 11:35 | 38.21762 | -27.74157 | 21428 ft | 395 kts | 142° |
| 2026-05-04 11:35 | 38.19571 | -27.72026 | 21956 ft | 398 kts | 142° |
| 2026-05-04 11:35 | 38.17357 | -27.69875 | 22453 ft | 403 kts | 142° |
| 2026-05-04 11:36 | 38.15121 | -27.67701 | 22936 ft | 408 kts | 142° |
| 2026-05-04 11:36 | 38.12854 | -27.65496 | 23403 ft | 413 kts | 142° |
| 2026-05-04 11:36 | 38.10562 | -27.63268 | 23850 ft | 418 kts | 141° |
| 2026-05-04 11:36 | 38.08429 | -27.60743 | 24298 ft | 421 kts | 132° |
| 2026-05-04 11:37 | 38.06644 | -27.57779 | 24641 ft | 426 kts | 122° |
| 2026-05-04 11:37 | 38.05178 | -27.54496 | 25060 ft | 429 kts | 118° |
| 2026-05-04 11:37 | 38.03724 | -27.51168 | 25369 ft | 435 kts | 119° |
| 2026-05-04 11:37 | 38.02240 | -27.47808 | 25752 ft | 438 kts | 119° |
| 2026-05-04 11:38 | 38.00746 | -27.44439 | 26184 ft | 440 kts | 120° |
| 2026-05-04 11:38 | 37.99238 | -27.41053 | 26622 ft | 441 kts | 120° |
| 2026-05-04 11:38 | 37.97724 | -27.37657 | 26990 ft | 444 kts | 120° |
| 2026-05-04 11:38 | 37.96198 | -27.34228 | 27326 ft | 448 kts | 120° |
| 2026-05-04 11:39 | 37.94666 | -27.30782 | 27679 ft | 451 kts | 120° |
| 2026-05-04 11:39 | 37.93100 | -27.27258 | 28043 ft | 455 kts | 120° |
| 2026-05-04 11:40 | 37.83601 | -27.05977 | 30196 ft | 471 kts | 120° |
| 2026-05-04 11:41 | 37.81985 | -27.02369 | 30502 ft | 474 kts | 120° |
| 2026-05-04 11:41 | 37.80353 | -26.98731 | 30788 ft | 477 kts | 120° |
| 2026-05-04 11:41 | 37.78711 | -26.95074 | 31082 ft | 479 kts | 120° |
| 2026-05-04 11:41 | 37.77065 | -26.91405 | 31386 ft | 480 kts | 120° |
| 2026-05-04 11:42 | 37.75417 | -26.87738 | 31800 ft | 479 kts | 120° |
| 2026-05-04 11:42 | 37.73748 | -26.84033 | 32224 ft | 479 kts | 121° |
| 2026-05-04 11:42 | 37.72098 | -26.80382 | 32641 ft | 478 kts | 121° |
| 2026-05-04 11:42 | 37.70453 | -26.76740 | 33057 ft | 477 kts | 121° |
| 2026-05-04 11:43 | 37.68808 | -26.73106 | 33484 ft | 476 kts | 121° |
| 2026-05-04 11:43 | 37.67163 | -26.69477 | 33887 ft | 476 kts | 121° |
| 2026-05-04 11:43 | 37.65520 | -26.65854 | 34320 ft | 475 kts | 121° |
| 2026-05-04 11:43 | 37.63880 | -26.62242 | 34672 ft | 475 kts | 121° |
| 2026-05-04 11:44 | 37.62241 | -26.58629 | 35034 ft | 474 kts | 121° |
| 2026-05-04 11:44 | 37.60605 | -26.55026 | 35391 ft | 473 kts | 121° |
| 2026-05-04 11:44 | 37.58970 | -26.51432 | 35749 ft | 472 kts | 121° |
| 2026-05-04 11:44 | 37.57335 | -26.47846 | 36083 ft | 471 kts | 121° |
| 2026-05-04 11:45 | 37.55703 | -26.44272 | 36413 ft | 471 kts | 121° |
| 2026-05-04 11:45 | 37.54067 | -26.40697 | 36729 ft | 470 kts | 121° |
| 2026-05-04 11:45 | 37.52436 | -26.37138 | 37045 ft | 469 kts | 121° |
| 2026-05-04 11:45 | 37.50803 | -26.33574 | 37260 ft | 470 kts | 121° |
| 2026-05-04 11:46 | 37.49166 | -26.30006 | 37307 ft | 471 kts | 121° |
| 2026-05-04 11:46 | 37.45890 | -26.22852 | 37305 ft | 472 kts | 121° |
| 2026-05-04 11:47 | 37.42603 | -26.15708 | 37303 ft | 471 kts | 122° |
| 2026-05-04 11:47 | 37.39310 | -26.08577 | 37302 ft | 471 kts | 122° |
| 2026-05-04 11:48 | 37.36022 | -26.01450 | 37299 ft | 471 kts | 122° |
| 2026-05-04 11:48 | 37.32705 | -25.94271 | 37308 ft | 472 kts | 122° |
| 2026-05-04 11:49 | 37.29424 | -25.87196 | 37291 ft | 472 kts | 122° |
| 2026-05-04 11:49 | 37.26110 | -25.80079 | 37303 ft | 472 kts | 122° |
| 2026-05-04 11:50 | 37.22775 | -25.72922 | 37314 ft | 472 kts | 122° |
| 2026-05-04 11:50 | 37.19476 | -25.65866 | 37309 ft | 472 kts | 122° |
| 2026-05-04 11:51 | 37.16151 | -25.58767 | 37312 ft | 472 kts | 122° |
| 2026-05-04 11:51 | 37.12828 | -25.51681 | 37302 ft | 472 kts | 122° |
| 2026-05-04 11:52 | 37.09505 | -25.44597 | 37301 ft | 471 kts | 122° |
| 2026-05-04 11:52 | 37.06178 | -25.37532 | 37302 ft | 471 kts | 122° |
| 2026-05-04 11:53 | 37.03385 | -25.31617 | 37293 ft | 471 kts | 122° |
| 2026-05-04 11:53 | 37.00051 | -25.24564 | 37269 ft | 471 kts | 122° |
| 2026-05-04 11:55 | 36.86581 | -24.96577 | 37292 ft | 469 kts | 123° |
| 2026-05-04 11:56 | 36.83199 | -24.89612 | 37278 ft | 469 kts | 123° |
| 2026-05-04 11:56 | 36.79818 | -24.82666 | 37287 ft | 468 kts | 123° |
| 2026-05-04 11:57 | 36.76434 | -24.75729 | 37287 ft | 468 kts | 123° |
| 2026-05-04 11:57 | 36.73048 | -24.68800 | 37289 ft | 468 kts | 123° |
| 2026-05-04 11:58 | 36.69661 | -24.61876 | 37277 ft | 468 kts | 123° |
| 2026-05-04 11:58 | 36.66270 | -24.54957 | 37283 ft | 467 kts | 123° |
| 2026-05-04 11:59 | 36.62873 | -24.48060 | 37283 ft | 467 kts | 123° |
| 2026-05-04 11:59 | 36.59470 | -24.41173 | 37285 ft | 467 kts | 123° |
| 2026-05-04 12:00 | 36.56067 | -24.34288 | 37286 ft | 467 kts | 123° |
| 2026-05-04 12:00 | 36.52664 | -24.27408 | 37281 ft | 467 kts | 123° |
| 2026-05-04 12:01 | 36.49258 | -24.20535 | 37288 ft | 467 kts | 123° |
| 2026-05-04 12:02 | 36.38149 | -23.96007 | 37270 ft | 468 kts | 113° |
| 2026-05-04 12:03 | 36.35766 | -23.88711 | 37274 ft | 467 kts | 113° |
| 2026-05-04 12:03 | 36.33316 | -23.81243 | 37279 ft | 467 kts | 114° |
| 2026-05-04 12:04 | 36.30863 | -23.73777 | 37279 ft | 467 kts | 114° |
| 2026-05-04 12:04 | 36.28407 | -23.66319 | 37273 ft | 468 kts | 114° |
| 2026-05-04 12:05 | 36.25941 | -23.58858 | 37275 ft | 468 kts | 114° |
| 2026-05-04 12:05 | 36.23475 | -23.51402 | 37268 ft | 467 kts | 114° |
| 2026-05-04 12:06 | 36.21132 | -23.44341 | 37271 ft | 467 kts | 114° |
| 2026-05-04 12:06 | 36.18636 | -23.36852 | 37273 ft | 467 kts | 114° |
| 2026-05-04 12:07 | 36.16217 | -23.29606 | 37273 ft | 467 kts | 114° |
| 2026-05-04 12:07 | 36.13737 | -23.22173 | 37271 ft | 468 kts | 114° |
| 2026-05-04 12:08 | 36.11248 | -23.14741 | 37275 ft | 468 kts | 114° |
| 2026-05-04 12:08 | 36.08751 | -23.07312 | 37272 ft | 468 kts | 114° |
| 2026-05-04 12:09 | 36.06241 | -22.99888 | 37266 ft | 468 kts | 114° |
| 2026-05-04 12:09 | 36.03730 | -22.92458 | 37266 ft | 469 kts | 114° |
| 2026-05-04 12:10 | 36.01216 | -22.85021 | 37268 ft | 469 kts | 114° |
| 2026-05-04 12:10 | 35.98691 | -22.77593 | 37269 ft | 469 kts | 115° |
| 2026-05-04 12:11 | 35.96190 | -22.70234 | 37249 ft | 469 kts | 114° |
| 2026-05-04 12:11 | 35.93662 | -22.62812 | 37261 ft | 469 kts | 115° |
| 2026-05-04 12:12 | 35.91129 | -22.55402 | 37266 ft | 469 kts | 115° |
| 2026-05-04 12:12 | 35.88580 | -22.47948 | 37263 ft | 468 kts | 115° |
| 2026-05-04 12:14 | 35.78378 | -22.18393 | 37263 ft | 468 kts | 115° |
| 2026-05-04 12:15 | 35.75803 | -22.10980 | 37263 ft | 468 kts | 115° |
| 2026-05-04 12:15 | 35.73225 | -22.03513 | 37262 ft | 467 kts | 115° |
| 2026-05-04 12:16 | 35.70668 | -21.96160 | 37263 ft | 467 kts | 115° |
| 2026-05-04 12:16 | 35.68096 | -21.88825 | 37259 ft | 467 kts | 115° |
| 2026-05-04 12:17 | 35.65516 | -21.81496 | 37249 ft | 467 kts | 115° |
| 2026-05-04 12:17 | 35.62944 | -21.74175 | 37255 ft | 467 kts | 115° |
| 2026-05-04 12:18 | 35.60377 | -21.66851 | 37251 ft | 467 kts | 115° |
| 2026-05-04 12:18 | 35.57802 | -21.59534 | 37252 ft | 467 kts | 115° |
| 2026-05-04 12:19 | 35.55210 | -21.52226 | 37254 ft | 467 kts | 115° |
| 2026-05-04 12:19 | 35.52623 | -21.44921 | 37252 ft | 467 kts | 116° |
| 2026-05-04 12:20 | 35.50030 | -21.37611 | 37243 ft | 467 kts | 116° |
| 2026-05-04 12:20 | 35.47432 | -21.30306 | 37247 ft | 467 kts | 116° |
| 2026-05-04 12:21 | 35.44826 | -21.23012 | 37248 ft | 467 kts | 116° |
| 2026-05-04 12:21 | 35.42224 | -21.15741 | 37244 ft | 467 kts | 116° |
| 2026-05-04 12:22 | 35.39616 | -21.08444 | 37249 ft | 467 kts | 116° |
| 2026-05-04 12:22 | 35.36994 | -21.01156 | 37246 ft | 468 kts | 116° |
| 2026-05-04 12:23 | 35.34427 | -20.94051 | 37224 ft | 468 kts | 116° |
| 2026-05-04 12:23 | 35.31792 | -20.86763 | 37235 ft | 468 kts | 116° |
| 2026-05-04 12:24 | 35.29604 | -20.80710 | 37234 ft | 468 kts | 116° |
| 2026-05-04 12:24 | 35.26962 | -20.73416 | 37237 ft | 469 kts | 117° |
| 2026-05-04 12:25 | 35.24310 | -20.66132 | 37238 ft | 469 kts | 117° |
| 2026-05-04 12:25 | 35.21659 | -20.58835 | 37236 ft | 469 kts | 116° |
| 2026-05-04 12:26 | 35.19004 | -20.51550 | 37220 ft | 469 kts | 117° |
| 2026-05-04 12:26 | 35.16337 | -20.44265 | 37224 ft | 470 kts | 117° |
| 2026-05-04 12:27 | 35.13725 | -20.37169 | 37226 ft | 470 kts | 117° |
| 2026-05-04 12:27 | 35.11021 | -20.29833 | 37228 ft | 470 kts | 117° |
| 2026-05-04 12:28 | 35.08345 | -20.22543 | 37239 ft | 471 kts | 117° |
| 2026-05-04 12:28 | 35.05658 | -20.15259 | 37228 ft | 471 kts | 117° |
| 2026-05-04 12:29 | 35.02960 | -20.07978 | 37203 ft | 471 kts | 118° |
| 2026-05-04 12:29 | 35.00230 | -20.00719 | 37224 ft | 469 kts | 121° |
| 2026-05-04 12:30 | 34.96868 | -19.94219 | 37220 ft | 466 kts | 127° |
| 2026-05-04 12:30 | 34.93387 | -19.87805 | 37224 ft | 466 kts | 127° |
| 2026-05-04 12:31 | 34.89809 | -19.81228 | 37227 ft | 466 kts | 128° |
| 2026-05-04 12:31 | 34.86214 | -19.74658 | 37218 ft | 466 kts | 128° |
| 2026-05-04 12:32 | 34.80833 | -19.64818 | 37215 ft | 465 kts | 128° |
| 2026-05-04 12:33 | 34.77251 | -19.58267 | 37221 ft | 465 kts | 128° |
| 2026-05-04 12:33 | 34.73668 | -19.51728 | 37216 ft | 464 kts | 128° |
| 2026-05-04 12:34 | 34.70081 | -19.45205 | 37213 ft | 464 kts | 128° |
| 2026-05-04 12:34 | 34.66487 | -19.38691 | 37191 ft | 464 kts | 128° |
| 2026-05-04 12:35 | 34.62896 | -19.32173 | 37197 ft | 464 kts | 128° |
| 2026-05-04 12:35 | 34.59300 | -19.25662 | 37205 ft | 464 kts | 128° |
| 2026-05-04 12:36 | 34.55692 | -19.19164 | 37210 ft | 464 kts | 128° |
| 2026-05-04 12:36 | 34.52093 | -19.12668 | 37207 ft | 464 kts | 128° |
| 2026-05-04 12:37 | 34.48489 | -19.06173 | 37205 ft | 464 kts | 128° |
| 2026-05-04 12:37 | 34.44876 | -18.99686 | 37203 ft | 465 kts | 128° |
| 2026-05-04 12:38 | 34.41254 | -18.93197 | 37192 ft | 465 kts | 128° |
| 2026-05-04 12:38 | 34.37634 | -18.86711 | 37193 ft | 465 kts | 128° |
| 2026-05-04 12:39 | 34.34003 | -18.80229 | 37192 ft | 465 kts | 128° |
| 2026-05-04 12:39 | 34.30464 | -18.73917 | 37193 ft | 465 kts | 128° |
| 2026-05-04 12:40 | 34.26830 | -18.67450 | 37178 ft | 465 kts | 128° |
| 2026-05-04 12:40 | 34.23191 | -18.60990 | 37188 ft | 465 kts | 128° |
| 2026-05-04 12:41 | 34.19653 | -18.54724 | 37186 ft | 464 kts | 128° |
| 2026-05-04 12:41 | 34.16013 | -18.48282 | 37187 ft | 464 kts | 128° |
| 2026-05-04 12:42 | 34.12368 | -18.41840 | 37188 ft | 465 kts | 128° |
| 2026-05-04 12:42 | 34.08722 | -18.35401 | 37162 ft | 465 kts | 128° |
| 2026-05-04 12:43 | 34.05065 | -18.28964 | 37159 ft | 465 kts | 128° |
| 2026-05-04 12:43 | 34.01405 | -18.22524 | 36823 ft | 466 kts | 128° |
| 2026-05-04 12:43 | 33.99574 | -18.19306 | 36563 ft | 466 kts | 128° |
| 2026-05-04 12:44 | 33.97737 | -18.16084 | 35927 ft | 468 kts | 128° |
| 2026-05-04 12:44 | 33.95884 | -18.12845 | 35148 ft | 471 kts | 128° |
| 2026-05-04 12:44 | 33.94017 | -18.09583 | 34317 ft | 475 kts | 128° |
| 2026-05-04 12:44 | 33.92158 | -18.06294 | 33689 ft | 474 kts | 127° |
| 2026-05-04 12:45 | 33.90415 | -18.02948 | 33165 ft | 470 kts | 125° |
| 2026-05-04 12:45 | 33.88782 | -17.99551 | 32611 ft | 466 kts | 123° |
| 2026-05-04 12:45 | 33.87223 | -17.96145 | 32076 ft | 463 kts | 122° |
| 2026-05-04 12:45 | 33.85689 | -17.92748 | 31534 ft | 460 kts | 122° |
| 2026-05-04 12:46 | 33.84156 | -17.89386 | 30996 ft | 457 kts | 122° |
| 2026-05-04 12:46 | 33.82619 | -17.86084 | 30468 ft | 454 kts | 123° |
| 2026-05-04 12:46 | 33.81059 | -17.82791 | 29879 ft | 451 kts | 123° |
| 2026-05-04 12:46 | 33.79500 | -17.79536 | 29346 ft | 447 kts | 123° |
| 2026-05-04 12:47 | 33.77951 | -17.76320 | 28821 ft | 443 kts | 123° |
| 2026-05-04 12:47 | 33.76413 | -17.73136 | 28306 ft | 439 kts | 123° |
| 2026-05-04 12:47 | 33.74886 | -17.69973 | 27801 ft | 435 kts | 123° |
| 2026-05-04 12:47 | 33.73379 | -17.66841 | 27298 ft | 432 kts | 123° |
| 2026-05-04 12:48 | 33.71773 | -17.63821 | 26822 ft | 426 kts | 130° |
| 2026-05-04 12:48 | 33.69861 | -17.61143 | 26352 ft | 420 kts | 135° |
| 2026-05-04 12:48 | 33.67907 | -17.58555 | 25912 ft | 417 kts | 135° |
| 2026-05-04 12:48 | 33.65964 | -17.55983 | 25455 ft | 415 kts | 135° |
| 2026-05-04 12:49 | 33.64027 | -17.53422 | 25023 ft | 414 kts | 135° |
| 2026-05-04 12:49 | 33.62093 | -17.50871 | 24591 ft | 412 kts | 135° |
| 2026-05-04 12:49 | 33.60169 | -17.48328 | 24145 ft | 411 kts | 135° |
| 2026-05-04 12:49 | 33.58250 | -17.45789 | 23694 ft | 411 kts | 135° |
| 2026-05-04 12:50 | 33.56338 | -17.43255 | 23187 ft | 409 kts | 135° |
| 2026-05-04 12:50 | 33.54436 | -17.40731 | 22723 ft | 406 kts | 135° |
| 2026-05-04 12:50 | 33.52548 | -17.38226 | 22259 ft | 403 kts | 135° |
| 2026-05-04 12:50 | 33.50670 | -17.35739 | 21777 ft | 401 kts | 135° |
| 2026-05-04 12:51 | 33.48802 | -17.33270 | 21281 ft | 399 kts | 135° |
| 2026-05-04 12:51 | 33.46940 | -17.30814 | 20795 ft | 398 kts | 135° |
| 2026-05-04 12:51 | 33.45080 | -17.28369 | 20305 ft | 396 kts | 135° |
| 2026-05-04 12:51 | 33.43231 | -17.25943 | 19811 ft | 393 kts | 135° |
| 2026-05-04 12:52 | 33.41394 | -17.23530 | 19312 ft | 391 kts | 135° |
| 2026-05-04 12:52 | 33.39567 | -17.21127 | 18812 ft | 389 kts | 135° |
| 2026-05-04 12:52 | 33.37749 | -17.18740 | 18304 ft | 387 kts | 135° |
| 2026-05-04 12:52 | 33.35941 | -17.16372 | 17782 ft | 384 kts | 134° |
| 2026-05-04 12:53 | 33.34171 | -17.14011 | 17290 ft | 380 kts | 130° |
| 2026-05-04 12:53 | 33.32567 | -17.11510 | 16782 ft | 377 kts | 129° |
| 2026-05-04 12:53 | 33.30987 | -17.09027 | 16293 ft | 373 kts | 129° |
| 2026-05-04 12:53 | 33.29422 | -17.06569 | 15804 ft | 370 kts | 129° |
| 2026-05-04 12:54 | 33.27867 | -17.04128 | 15314 ft | 367 kts | 129° |
| 2026-05-04 12:54 | 33.26329 | -17.01711 | 14838 ft | 364 kts | 128° |
| 2026-05-04 12:54 | 33.24819 | -16.99340 | 14359 ft | 362 kts | 128° |
| 2026-05-04 12:54 | 33.23278 | -16.96928 | 13862 ft | 359 kts | 128° |
| 2026-05-04 12:55 | 33.21766 | -16.94565 | 13350 ft | 356 kts | 129° |
| 2026-05-04 12:55 | 33.20267 | -16.92227 | 12879 ft | 352 kts | 129° |
| 2026-05-04 12:55 | 33.18806 | -16.89944 | 12415 ft | 349 kts | 129° |
| 2026-05-04 12:55 | 33.17341 | -16.87655 | 11953 ft | 345 kts | 129° |
| 2026-05-04 12:56 | 33.15888 | -16.85388 | 11499 ft | 343 kts | 129° |
| 2026-05-04 12:56 | 33.14443 | -16.83139 | 11055 ft | 340 kts | 129° |